sensor_id;sensor_type;location;lat;lon;timestamp;pressure;altitude;pressure_sealevel;temperature;humidity
11049;BME280;5577;42.706;23.160;2022-07-15T00:02:05;94244.91;;;16.99;100.00
11049;BME280;5577;42.706;23.160;2022-07-15T00:04:50;94243.00;;;16.96;100.00
11049;BME280;5577;42.706;23.160;2022-07-15T00:07:35;94236.13;;;16.88;100.00
11049;BME280;5577;42.706;23.160;2022-07-15T00:10:20;94243.78;;;16.90;100.00
11049;BME280;5577;42.706;23.160;2022-07-15T00:13:06;94240.72;;;16.88;100.00
11049;BME280;5577;42.706;23.160;2022-07-15T00:15:50;94241.88;;;16.87;100.00
11049;BME280;5577;42.706;23.160;2022-07-15T00:18:35;94239.19;;;16.87;100.00
11049;BME280;5577;42.706;23.160;2022-07-15T00:21:19;94248.34;;;16.79;100.00
11049;BME280;5577;42.706;23.160;2022-07-15T00:24:03;94243.00;;;16.75;100.00
11049;BME280;5577;42.706;23.160;2022-07-15T00:26:47;94245.28;;;16.66;100.00
11049;BME280;5577;42.706;23.160;2022-07-15T00:29:31;94246.81;;;16.64;100.00
11049;BME280;5577;42.706;23.160;2022-07-15T00:32:15;94238.78;;;16.64;100.00
11049;BME280;5577;42.706;23.160;2022-07-15T00:34:59;94243.38;;;16.67;100.00
11049;BME280;5577;42.706;23.160;2022-07-15T00:37:43;94229.63;;;16.65;100.00
11049;BME280;5577;42.706;23.160;2022-07-15T00:40:27;94237.25;;;16.59;100.00
11049;BME280;5577;42.706;23.160;2022-07-15T00:43:13;94224.25;;;16.58;100.00
11049;BME280;5577;42.706;23.160;2022-07-15T00:45:57;94236.09;;;16.57;100.00
11049;BME280;5577;42.706;23.160;2022-07-15T00:48:41;94227.28;;;16.35;100.00
11049;BME280;5577;42.706;23.160;2022-07-15T00:51:25;94226.88;;;16.33;100.00
11049;BME280;5577;42.706;23.160;2022-07-15T00:54:11;94221.91;;;16.32;100.00
11049;BME280;5577;42.706;23.160;2022-07-15T00:56:56;94230.69;;;16.29;100.00
11049;BME280;5577;42.706;23.160;2022-07-15T00:59:41;94226.13;;;16.29;100.00
11049;BME280;5577;42.706;23.160;2022-07-15T01:02:25;94223.06;;;16.31;100.00
11049;BME280;5577;42.706;23.160;2022-07-15T01:05:10;94226.09;;;16.22;100.00
11049;BME280;5577;42.706;23.160;2022-07-15T01:07:54;94184.03;;;15.88;100.00
11049;BME280;5577;42.706;23.160;2022-07-15T01:10:39;94219.59;;;16.13;100.00
11049;BME280;5577;42.706;23.160;2022-07-15T01:13:23;94218.03;;;16.05;100.00
11049;BME280;5577;42.706;23.160;2022-07-15T01:16:07;94210.00;;;15.98;100.00
11049;BME280;5577;42.706;23.160;2022-07-15T01:18:52;94207.72;;;15.93;100.00
11049;BME280;5577;42.706;23.160;2022-07-15T01:21:36;94207.31;;;15.91;100.00
11049;BME280;5577;42.706;23.160;2022-07-15T01:24:20;94205.78;;;15.90;100.00
11049;BME280;5577;42.706;23.160;2022-07-15T01:27:04;94201.59;;;15.89;100.00
11049;BME280;5577;42.706;23.160;2022-07-15T01:29:48;94200.81;;;15.85;100.00
11049;BME280;5577;42.706;23.160;2022-07-15T01:32:32;94197.34;;;15.77;100.00
11049;BME280;5577;42.706;23.160;2022-07-15T01:35:16;94197.34;;;15.77;100.00
11049;BME280;5577;42.706;23.160;2022-07-15T01:38:00;94193.13;;;15.69;100.00
11049;BME280;5577;42.706;23.160;2022-07-15T01:40:44;94203.00;;;15.62;100.00
11049;BME280;5577;42.706;23.160;2022-07-15T01:43:28;94155.22;;;15.32;100.00
11049;BME280;5577;42.706;23.160;2022-07-15T01:46:12;94193.84;;;15.63;100.00
11049;BME280;5577;42.706;23.160;2022-07-15T01:48:57;94160.22;;;15.37;100.00
11049;BME280;5577;42.706;23.160;2022-07-15T01:52:01;94204.13;;;15.54;100.00
11049;BME280;5577;42.706;23.160;2022-07-15T01:54:45;94210.97;;;15.51;100.00
11049;BME280;5577;42.706;23.160;2022-07-15T01:57:30;94206.44;;;15.55;100.00
11049;BME280;5577;42.706;23.160;2022-07-15T02:00:14;94205.25;;;15.49;100.00
11049;BME280;5577;42.706;23.160;2022-07-15T02:02:59;94204.47;;;15.49;100.00
11049;BME280;5577;42.706;23.160;2022-07-15T02:05:43;94207.16;;;15.52;100.00
11049;BME280;5577;42.706;23.160;2022-07-15T02:08:27;94208.28;;;15.44;100.00
11049;BME280;5577;42.706;23.160;2022-07-15T02:11:11;94205.19;;;15.39;100.00
11049;BME280;5577;42.706;23.160;2022-07-15T02:13:55;94212.38;;;15.35;100.00
11049;BME280;5577;42.706;23.160;2022-07-15T02:16:42;94194.00;;;15.19;100.00
11049;BME280;5577;42.706;23.160;2022-07-15T02:19:26;94214.25;;;15.27;100.00
11049;BME280;5577;42.706;23.160;2022-07-15T02:22:10;94209.66;;;15.28;100.00
11049;BME280;5577;42.706;23.160;2022-07-15T02:24:54;94202.84;;;15.30;100.00
11049;BME280;5577;42.706;23.160;2022-07-15T02:27:38;94207.81;;;15.32;100.00
11049;BME280;5577;42.706;23.160;2022-07-15T02:30:24;94208.25;;;15.37;100.00
11049;BME280;5577;42.706;23.160;2022-07-15T02:33:09;94203.31;;;15.46;100.00
11049;BME280;5577;42.706;23.160;2022-07-15T02:35:53;94202.59;;;15.56;100.00
11049;BME280;5577;42.706;23.160;2022-07-15T02:38:37;94209.06;;;15.48;100.00
11049;BME280;5577;42.706;23.160;2022-07-15T02:41:21;94190.41;;;15.55;100.00
11049;BME280;5577;42.706;23.160;2022-07-15T02:44:05;94194.19;;;15.51;100.00
11049;BME280;5577;42.706;23.160;2022-07-15T02:46:49;94197.97;;;15.46;100.00
11049;BME280;5577;42.706;23.160;2022-07-15T02:49:33;94200.31;;;15.51;100.00
11049;BME280;5577;42.706;23.160;2022-07-15T02:52:17;94204.47;;;15.45;100.00
11049;BME280;5577;42.706;23.160;2022-07-15T02:55:02;94210.53;;;15.46;100.00
11049;BME280;5577;42.706;23.160;2022-07-15T02:57:46;94205.13;;;15.35;100.00
11049;BME280;5577;42.706;23.160;2022-07-15T03:00:30;94215.03;;;15.31;100.00
11049;BME280;5577;42.706;23.160;2022-07-15T03:03:14;94204.31;;;15.24;100.00
11049;BME280;5577;42.706;23.160;2022-07-15T03:05:58;94190.13;;;15.10;100.00
11049;BME280;5577;42.706;23.160;2022-07-15T03:08:43;94210.72;;;15.13;100.00
11049;BME280;5577;42.706;23.160;2022-07-15T03:11:27;94172.84;;;14.86;100.00
11049;BME280;5577;42.706;23.160;2022-07-15T03:14:11;94211.03;;;15.04;100.00
11049;BME280;5577;42.706;23.160;2022-07-15T03:16:55;94216.75;;;15.03;100.00
11049;BME280;5577;42.706;23.160;2022-07-15T03:32:48;94154.44;;;15.25;100.00
11049;BME280;5577;42.706;23.160;2022-07-15T03:35:32;94206.81;;;15.64;100.00
11049;BME280;5577;42.706;23.160;2022-07-15T03:38:15;94196.50;;;15.56;100.00
11049;BME280;5577;42.706;23.160;2022-07-15T03:40:59;94210.63;;;15.56;100.00
11049;BME280;5577;42.706;23.160;2022-07-15T03:43:43;94216.38;;;15.65;100.00
11049;BME280;5577;42.706;23.160;2022-07-15T03:46:28;94208.72;;;15.60;100.00
11049;BME280;5577;42.706;23.160;2022-07-15T03:49:14;94207.25;;;15.73;100.00
11049;BME280;5577;42.706;23.160;2022-07-15T03:51:59;94209.56;;;15.85;100.00
11049;BME280;5577;42.706;23.160;2022-07-15T03:54:43;94211.88;;;15.87;100.00
11049;BME280;5577;42.706;23.160;2022-07-15T03:57:27;94212.28;;;15.96;100.00
11049;BME280;5577;42.706;23.160;2022-07-15T04:00:12;94208.09;;;16.02;100.00
11049;BME280;5577;42.706;23.160;2022-07-15T04:02:56;94213.09;;;16.10;100.00
11049;BME280;5577;42.706;23.160;2022-07-15T04:05:40;94215.03;;;16.20;100.00
11049;BME280;5577;42.706;23.160;2022-07-15T04:08:24;94210.84;;;16.37;100.00
11049;BME280;5577;42.706;23.160;2022-07-15T04:11:10;94212.06;;;16.57;100.00
11049;BME280;5577;42.706;23.160;2022-07-15T04:13:54;94213.97;;;16.70;100.00
11049;BME280;5577;42.706;23.160;2022-07-15T04:16:38;94204.81;;;16.92;100.00
11049;BME280;5577;42.706;23.160;2022-07-15T04:19:22;94205.19;;;16.91;100.00
11049;BME280;5577;42.706;23.160;2022-07-15T04:22:06;94204.41;;;17.08;100.00
11049;BME280;5577;42.706;23.160;2022-07-15T04:24:50;94201.34;;;17.24;100.00
11049;BME280;5577;42.706;23.160;2022-07-15T04:27:34;94207.41;;;17.38;100.00
11049;BME280;5577;42.706;23.160;2022-07-15T04:30:18;94208.16;;;17.49;100.00
11049;BME280;5577;42.706;23.160;2022-07-15T04:33:02;94205.06;;;17.65;100.00
11049;BME280;5577;42.706;23.160;2022-07-15T04:35:46;94207.31;;;17.73;100.00
11049;BME280;5577;42.706;23.160;2022-07-15T04:38:32;94210.38;;;17.72;100.00
11049;BME280;5577;42.706;23.160;2022-07-15T04:41:16;94199.28;;;17.73;100.00
11049;BME280;5577;42.706;23.160;2022-07-15T04:44:00;94204.19;;;17.92;100.00
11049;BME280;5577;42.706;23.160;2022-07-15T04:46:44;94204.09;;;18.10;100.00
11049;BME280;5577;42.706;23.160;2022-07-15T04:49:29;94208.66;;;18.20;100.00
11049;BME280;5577;42.706;23.160;2022-07-15T04:52:31;94208.19;;;18.32;100.00
11049;BME280;5577;42.706;23.160;2022-07-15T04:55:15;94212.38;;;18.43;100.00
11049;BME280;5577;42.706;23.160;2022-07-15T04:57:59;94214.22;;;18.53;100.00
11049;BME280;5577;42.706;23.160;2022-07-15T05:00:45;94216.06;;;18.63;100.00
11049;BME280;5577;42.706;23.160;2022-07-15T05:03:29;94222.09;;;18.74;100.00
11049;BME280;5577;42.706;23.160;2022-07-15T05:06:13;94221.56;;;18.93;100.00
11049;BME280;5577;42.706;23.160;2022-07-15T05:08:57;94222.28;;;19.01;100.00
11049;BME280;5577;42.706;23.160;2022-07-15T05:11:41;94213.13;;;18.98;100.00
11049;BME280;5577;42.706;23.160;2022-07-15T05:14:25;94219.19;;;19.02;100.00
11049;BME280;5577;42.706;23.160;2022-07-15T05:17:10;94213.06;;;19.05;100.00
11049;BME280;5577;42.706;23.160;2022-07-15T05:19:54;94197.75;;;19.02;100.00
11049;BME280;5577;42.706;23.160;2022-07-15T05:22:38;94216.31;;;19.27;100.00
11049;BME280;5577;42.706;23.160;2022-07-15T05:25:22;94212.81;;;19.33;100.00
11049;BME280;5577;42.706;23.160;2022-07-15T05:28:06;94212.69;;;19.44;100.00
11049;BME280;5577;42.706;23.160;2022-07-15T05:30:50;94215.25;;;19.58;100.00
11049;BME280;5577;42.706;23.160;2022-07-15T05:33:34;94209.38;;;19.70;100.00
11049;BME280;5577;42.706;23.160;2022-07-15T05:36:18;94201.88;;;19.54;100.00
11049;BME280;5577;42.706;23.160;2022-07-15T05:39:02;94217.13;;;19.61;100.00
11049;BME280;5577;42.706;23.160;2022-07-15T05:41:46;94213.69;;;19.60;100.00
11049;BME280;5577;42.706;23.160;2022-07-15T05:44:31;94209.03;;;19.64;100.00
11049;BME280;5577;42.706;23.160;2022-07-15T05:47:16;94216.56;;;19.76;100.00
11049;BME280;5577;42.706;23.160;2022-07-15T05:50:00;94218.31;;;19.94;100.00
11049;BME280;5577;42.706;23.160;2022-07-15T05:52:44;94212.72;;;20.11;100.00
11049;BME280;5577;42.706;23.160;2022-07-15T05:55:29;94220.59;;;20.25;100.00
11049;BME280;5577;42.706;23.160;2022-07-15T05:58:12;94212.97;;;20.24;100.00
11049;BME280;5577;42.706;23.160;2022-07-15T06:00:56;94218.47;;;20.43;100.00
11049;BME280;5577;42.706;23.160;2022-07-15T06:03:40;94216.31;;;20.58;100.00
11049;BME280;5577;42.706;23.160;2022-07-15T06:06:24;94212.44;;;20.59;100.00
11049;BME280;5577;42.706;23.160;2022-07-15T06:09:08;94228.09;;;20.67;100.00
11049;BME280;5577;42.706;23.160;2022-07-15T06:11:53;94222.50;;;20.81;100.00
11049;BME280;5577;42.706;23.160;2022-07-15T06:14:37;94225.91;;;20.85;98.28
11049;BME280;5577;42.706;23.160;2022-07-15T06:17:21;94221.19;;;20.93;98.90
11049;BME280;5577;42.706;23.160;2022-07-15T06:20:06;94210.59;;;21.05;100.00
11049;BME280;5577;42.706;23.160;2022-07-15T06:22:51;94215.75;;;21.19;99.24
11049;BME280;5577;42.706;23.160;2022-07-15T06:25:35;94215.50;;;21.33;94.17
11049;BME280;5577;42.706;23.160;2022-07-15T06:28:18;94214.78;;;21.33;90.08
11049;BME280;5577;42.706;23.160;2022-07-15T06:31:02;94211.97;;;21.40;90.47
11049;BME280;5577;42.706;23.160;2022-07-15T06:33:46;94209.97;;;21.63;93.95
11049;BME280;5577;42.706;23.160;2022-07-15T06:36:30;94211.09;;;21.66;98.11
11049;BME280;5577;42.706;23.160;2022-07-15T06:39:14;94210.25;;;21.69;100.00
11049;BME280;5577;42.706;23.160;2022-07-15T06:41:59;94212.31;;;21.84;100.00
11049;BME280;5577;42.706;23.160;2022-07-15T06:44:43;94206.00;;;21.91;93.76
11049;BME280;5577;42.706;23.160;2022-07-15T06:47:27;94207.06;;;21.97;89.46
11049;BME280;5577;42.706;23.160;2022-07-15T06:50:13;94202.41;;;22.17;88.54
11049;BME280;5577;42.706;23.160;2022-07-15T06:52:57;94206.78;;;22.27;85.94
11049;BME280;5577;42.706;23.160;2022-07-15T06:55:41;94205.63;;;22.28;80.66
11049;BME280;5577;42.706;23.160;2022-07-15T06:58:25;94208.28;;;22.48;82.24
11049;BME280;5577;42.706;23.160;2022-07-15T07:01:09;94202.72;;;22.74;81.59
11049;BME280;5577;42.706;23.160;2022-07-15T07:03:53;94211.06;;;22.96;85.62
11049;BME280;5577;42.706;23.160;2022-07-15T07:06:37;94199.94;;;22.94;80.66
11049;BME280;5577;42.706;23.160;2022-07-15T07:09:21;94199.50;;;22.95;87.25
11049;BME280;5577;42.706;23.160;2022-07-15T07:12:05;94179.78;;;22.98;84.71
11049;BME280;5577;42.706;23.160;2022-07-15T07:14:49;94212.34;;;23.23;82.90
11049;BME280;5577;42.706;23.160;2022-07-15T07:17:33;94199.84;;;23.13;84.29
11049;BME280;5577;42.706;23.160;2022-07-15T07:20:18;94205.41;;;23.22;84.06
11049;BME280;5577;42.706;23.160;2022-07-15T07:23:02;94203.13;;;23.37;80.94
11049;BME280;5577;42.706;23.160;2022-07-15T07:25:46;94192.66;;;23.39;82.73
11049;BME280;5577;42.706;23.160;2022-07-15T07:28:31;94197.91;;;23.30;85.83
11049;BME280;5577;42.706;23.160;2022-07-15T07:31:15;94191.13;;;23.38;80.02
11049;BME280;5577;42.706;23.160;2022-07-15T07:33:59;94198.31;;;23.44;79.46
11049;BME280;5577;42.706;23.160;2022-07-15T07:36:46;94199.28;;;23.66;77.12
11049;BME280;5577;42.706;23.160;2022-07-15T07:39:32;94204.25;;;23.68;74.82
11049;BME280;5577;42.706;23.160;2022-07-15T07:42:16;94198.13;;;23.80;76.57
11049;BME280;5577;42.706;23.160;2022-07-15T07:45:00;94215.53;;;23.95;75.50
11049;BME280;5577;42.706;23.160;2022-07-15T07:47:45;94209.63;;;24.25;77.24
11049;BME280;5577;42.706;23.160;2022-07-15T07:50:29;94180.94;;;24.27;74.32
11049;BME280;5577;42.706;23.160;2022-07-15T07:53:13;94206.97;;;24.50;69.52
11049;BME280;5577;42.706;23.160;2022-07-15T07:55:58;94200.81;;;24.62;73.79
11049;BME280;5577;42.706;23.160;2022-07-15T07:58:42;94208.28;;;24.58;71.12
11049;BME280;5577;42.706;23.160;2022-07-15T08:01:26;94185.44;;;24.59;69.44
11049;BME280;5577;42.706;23.160;2022-07-15T08:04:10;94192.72;;;24.74;70.18
11049;BME280;5577;42.706;23.160;2022-07-15T08:06:54;94195.31;;;24.78;67.54
11049;BME280;5577;42.706;23.160;2022-07-15T08:09:38;94192.78;;;24.96;73.17
11049;BME280;5577;42.706;23.160;2022-07-15T08:12:22;94193.50;;;25.22;69.67
11049;BME280;5577;42.706;23.160;2022-07-15T08:15:08;94198.06;;;25.37;63.99
11049;BME280;5577;42.706;23.160;2022-07-15T08:17:54;94195.47;;;25.34;63.40
11049;BME280;5577;42.706;23.160;2022-07-15T08:20:38;94195.69;;;25.27;64.45
11049;BME280;5577;42.706;23.160;2022-07-15T08:23:22;94197.84;;;25.32;63.42
11049;BME280;5577;42.706;23.160;2022-07-15T08:26:05;94188.72;;;25.51;62.30
11049;BME280;5577;42.706;23.160;2022-07-15T08:28:51;94188.72;;;25.72;62.94
11049;BME280;5577;42.706;23.160;2022-07-15T08:31:36;94186.88;;;25.69;59.37
11049;BME280;5577;42.706;23.160;2022-07-15T08:34:21;94191.06;;;25.83;61.22
11049;BME280;5577;42.706;23.160;2022-07-15T08:37:05;94168.91;;;25.97;60.60
11049;BME280;5577;42.706;23.160;2022-07-15T08:39:49;94183.56;;;25.87;58.78
11049;BME280;5577;42.706;23.160;2022-07-15T08:42:32;94179.06;;;26.05;59.14
11049;BME280;5577;42.706;23.160;2022-07-15T08:45:17;94179.38;;;26.38;56.88
11049;BME280;5577;42.706;23.160;2022-07-15T08:48:01;94162.69;;;26.48;53.99
11049;BME280;5577;42.706;23.160;2022-07-15T08:50:47;94173.69;;;26.45;50.41
11049;BME280;5577;42.706;23.160;2022-07-15T08:53:31;94174.00;;;26.68;52.84
11049;BME280;5577;42.706;23.160;2022-07-15T08:56:17;94173.28;;;26.86;49.94
11049;BME280;5577;42.706;23.160;2022-07-15T08:59:03;94179.09;;;27.06;48.46
11049;BME280;5577;42.706;23.160;2022-07-15T09:01:48;94151.56;;;26.86;47.97
11049;BME280;5577;42.706;23.160;2022-07-15T09:04:32;94175.28;;;27.03;46.87
11049;BME280;5577;42.706;23.160;2022-07-15T09:07:16;94164.06;;;27.41;47.06
11049;BME280;5577;42.706;23.160;2022-07-15T09:10:00;94179.00;;;27.36;44.57
11049;BME280;5577;42.706;23.160;2022-07-15T09:12:48;94171.31;;;27.53;44.45
11049;BME280;5577;42.706;23.160;2022-07-15T09:15:37;94163.03;;;27.75;47.56
11049;BME280;5577;42.706;23.160;2022-07-15T09:18:28;94166.63;;;28.08;48.34
11049;BME280;5577;42.706;23.160;2022-07-15T09:21:24;94158.41;;;28.44;47.20
11049;BME280;5577;42.706;23.160;2022-07-15T09:24:17;94173.03;;;28.64;44.87
11049;BME280;5577;42.706;23.160;2022-07-15T09:27:02;94169.59;;;28.55;49.22
11049;BME280;5577;42.706;23.160;2022-07-15T09:30:27;94164.59;;;28.35;51.69
11049;BME280;5577;42.706;23.160;2022-07-15T09:33:35;94160.25;;;28.29;48.11
11049;BME280;5577;42.706;23.160;2022-07-15T09:36:21;94161.69;;;27.97;45.19
11049;BME280;5577;42.706;23.160;2022-07-15T09:39:06;94164.63;;;28.26;45.88
11049;BME280;5577;42.706;23.160;2022-07-15T09:41:51;94173.31;;;28.66;43.89
11049;BME280;5577;42.706;23.160;2022-07-15T09:44:36;94165.03;;;28.93;41.21
11049;BME280;5577;42.706;23.160;2022-07-15T09:47:20;94149.06;;;29.10;40.18
11049;BME280;5577;42.706;23.160;2022-07-15T09:50:06;94174.78;;;29.41;42.38
11049;BME280;5577;42.706;23.160;2022-07-15T09:52:51;94167.00;;;29.25;40.31
11049;BME280;5577;42.706;23.160;2022-07-15T09:55:35;94164.09;;;28.96;40.94
11049;BME280;5577;42.706;23.160;2022-07-15T09:58:21;94155.22;;;28.54;39.00
11049;BME280;5577;42.706;23.160;2022-07-15T10:01:06;94158.63;;;28.73;38.28
11049;BME280;5577;42.706;23.160;2022-07-15T10:03:52;94156.84;;;29.26;41.66
11049;BME280;5577;42.706;23.160;2022-07-15T10:06:38;94158.56;;;29.61;40.58
11049;BME280;5577;42.706;23.160;2022-07-15T10:09:24;94150.34;;;29.70;43.95
11049;BME280;5577;42.706;23.160;2022-07-15T10:26:48;94150.28;;;30.08;39.20
11049;BME280;5577;42.706;23.160;2022-07-15T10:29:34;94151.66;;;30.42;38.40
11049;BME280;5577;42.706;23.160;2022-07-15T10:32:18;94140.75;;;30.91;41.13
11049;BME280;5577;42.706;23.160;2022-07-15T10:41:10;94130.16;;;30.50;36.53
11049;BME280;5577;42.706;23.160;2022-07-15T10:44:09;94136.88;;;30.98;37.30
11049;BME280;5577;42.706;23.160;2022-07-15T10:49:56;94127.94;;;31.17;33.15
11049;BME280;5577;42.706;23.160;2022-07-15T10:52:40;94127.06;;;31.26;33.15
11049;BME280;5577;42.706;23.160;2022-07-15T10:55:24;94127.38;;;31.28;33.86
11049;BME280;5577;42.706;23.160;2022-07-15T10:58:07;94113.84;;;31.04;32.37
11049;BME280;5577;42.706;23.160;2022-07-15T11:00:51;94128.88;;;31.49;32.32
11049;BME280;5577;42.706;23.160;2022-07-15T11:04:10;94121.31;;;31.44;34.44
11049;BME280;5577;42.706;23.160;2022-07-15T11:15:21;94118.19;;;30.96;31.77
11049;BME280;5577;42.706;23.160;2022-07-15T11:18:08;94111.50;;;31.32;32.03
11049;BME280;5577;42.706;23.160;2022-07-15T11:20:53;94109.72;;;31.49;30.99
11049;BME280;5577;42.706;23.160;2022-07-15T11:23:38;94092.94;;;31.81;30.99
11049;BME280;5577;42.706;23.160;2022-07-15T11:26:22;94101.91;;;31.42;29.32
11049;BME280;5577;42.706;23.160;2022-07-15T11:29:05;94110.06;;;31.36;30.84
11049;BME280;5577;42.706;23.160;2022-07-15T11:31:50;94076.41;;;31.50;29.70
11049;BME280;5577;42.706;23.160;2022-07-15T11:34:53;94095.50;;;31.70;29.88
11049;BME280;5577;42.706;23.160;2022-07-15T11:37:38;94094.66;;;31.39;30.45
11049;BME280;5577;42.706;23.160;2022-07-15T11:40:22;94089.72;;;31.63;30.94
11049;BME280;5577;42.706;23.160;2022-07-15T11:43:25;94095.94;;;32.09;33.15
11049;BME280;5577;42.706;23.160;2022-07-15T11:46:29;94096.19;;;32.11;30.28
11049;BME280;5577;42.706;23.160;2022-07-15T11:49:31;94088.19;;;31.36;31.12
11049;BME280;5577;42.706;23.160;2022-07-15T11:52:24;94090.19;;;31.01;30.27
11049;BME280;5577;42.706;23.160;2022-07-15T11:55:09;94088.25;;;31.07;31.38
11049;BME280;5577;42.706;23.160;2022-07-15T11:57:53;94088.97;;;31.02;30.73
11049;BME280;5577;42.706;23.160;2022-07-15T12:00:38;94079.63;;;31.49;31.81
11049;BME280;5577;42.706;23.160;2022-07-15T12:03:22;94082.88;;;31.73;32.10
11049;BME280;5577;42.706;23.160;2022-07-15T12:06:12;94081.84;;;32.21;32.34
11049;BME280;5577;42.706;23.160;2022-07-15T12:09:01;94088.13;;;32.58;31.42
11049;BME280;5577;42.706;23.160;2022-07-15T12:11:47;94087.97;;;32.73;29.99
11049;BME280;5577;42.706;23.160;2022-07-15T12:14:31;94082.00;;;32.38;30.29
11049;BME280;5577;42.706;23.160;2022-07-15T12:17:16;94081.19;;;31.35;30.48
11049;BME280;5577;42.706;23.160;2022-07-15T12:20:00;94078.81;;;31.68;31.24
11049;BME280;5577;42.706;23.160;2022-07-15T12:23:07;94073.28;;;32.39;32.86
11049;BME280;5577;42.706;23.160;2022-07-15T12:26:09;94072.53;;;33.18;30.77
11049;BME280;5577;42.706;23.160;2022-07-15T12:29:00;94075.03;;;33.74;30.31
11049;BME280;5577;42.706;23.160;2022-07-15T12:31:55;94063.28;;;33.74;29.68
11049;BME280;5577;42.706;23.160;2022-07-15T12:34:54;94053.81;;;33.80;30.09
11049;BME280;5577;42.706;23.160;2022-07-15T12:40:24;94063.09;;;33.99;32.19
11049;BME280;5577;42.706;23.160;2022-07-15T12:43:08;94064.09;;;34.02;30.08
11049;BME280;5577;42.706;23.160;2022-07-15T12:45:52;94056.63;;;34.08;30.95
11049;BME280;5577;42.706;23.160;2022-07-15T12:48:43;94063.78;;;33.72;29.85
11049;BME280;5577;42.706;23.160;2022-07-15T12:51:28;94062.09;;;33.22;28.68
11049;BME280;5577;42.706;23.160;2022-07-15T12:54:15;94056.88;;;33.24;29.61
11049;BME280;5577;42.706;23.160;2022-07-15T12:56:59;94064.03;;;33.05;29.26
11049;BME280;5577;42.706;23.160;2022-07-15T12:59:58;94060.75;;;33.54;30.57
11049;BME280;5577;42.706;23.160;2022-07-15T13:03:11;94057.13;;;33.95;29.86
11049;BME280;5577;42.706;23.160;2022-07-15T13:05:55;94059.63;;;34.10;29.06
11049;BME280;5577;42.706;23.160;2022-07-15T13:08:40;94052.81;;;33.08;29.62
11049;BME280;5577;42.706;23.160;2022-07-15T13:11:24;94059.00;;;32.61;29.77
11049;BME280;5577;42.706;23.160;2022-07-15T13:14:08;94055.88;;;33.21;31.35
11049;BME280;5577;42.706;23.160;2022-07-15T13:16:52;94059.91;;;33.31;31.29
11049;BME280;5577;42.706;23.160;2022-07-15T13:19:36;94052.56;;;33.06;30.01
11049;BME280;5577;42.706;23.160;2022-07-15T13:22:20;94057.78;;;33.04;29.35
11049;BME280;5577;42.706;23.160;2022-07-15T13:25:05;94035.53;;;32.54;29.04
11049;BME280;5577;42.706;23.160;2022-07-15T13:27:49;94044.00;;;32.51;31.28
11049;BME280;5577;42.706;23.160;2022-07-15T13:30:33;94053.66;;;31.90;31.21
11049;BME280;5577;42.706;23.160;2022-07-15T13:33:18;94052.97;;;31.49;30.61
11049;BME280;5577;42.706;23.160;2022-07-15T13:36:03;94047.72;;;31.91;31.29
11049;BME280;5577;42.706;23.160;2022-07-15T13:38:47;94043.97;;;31.89;30.29
11049;BME280;5577;42.706;23.160;2022-07-15T13:41:31;94049.03;;;32.01;30.44
11049;BME280;5577;42.706;23.160;2022-07-15T13:44:15;94043.97;;;32.20;31.49
11049;BME280;5577;42.706;23.160;2022-07-15T13:46:59;94047.63;;;32.11;30.67
11049;BME280;5577;42.706;23.160;2022-07-15T13:49:43;94047.34;;;32.35;30.65
11049;BME280;5577;42.706;23.160;2022-07-15T13:52:51;94041.97;;;32.15;31.90
11049;BME280;5577;42.706;23.160;2022-07-15T13:55:35;94039.22;;;32.15;32.50
11049;BME280;5577;42.706;23.160;2022-07-15T13:58:19;94042.72;;;32.21;32.09
11049;BME280;5577;42.706;23.160;2022-07-15T14:01:03;94044.97;;;32.48;32.33
11049;BME280;5577;42.706;23.160;2022-07-15T14:03:47;94037.47;;;32.43;31.18
11049;BME280;5577;42.706;23.160;2022-07-15T14:06:31;94033.88;;;32.31;32.21
11049;BME280;5577;42.706;23.160;2022-07-15T14:09:15;94043.75;;;31.92;32.05
11049;BME280;5577;42.706;23.160;2022-07-15T14:12:00;94035.50;;;31.87;31.62
11049;BME280;5577;42.706;23.160;2022-07-15T14:14:45;94032.53;;;31.90;32.62
11049;BME280;5577;42.706;23.160;2022-07-15T14:17:28;94039.91;;;32.10;33.27
11049;BME280;5577;42.706;23.160;2022-07-15T14:20:13;94045.81;;;32.03;33.30
11049;BME280;5577;42.706;23.160;2022-07-15T14:22:59;94038.97;;;32.18;32.01
11049;BME280;5577;42.706;23.160;2022-07-15T14:25:43;94043.28;;;31.94;31.63
11049;BME280;5577;42.706;23.160;2022-07-15T14:28:27;94018.75;;;31.79;31.94
11049;BME280;5577;42.706;23.160;2022-07-15T14:31:11;94037.97;;;31.65;32.03
11049;BME280;5577;42.706;23.160;2022-07-15T14:33:58;94030.22;;;31.18;32.35
11049;BME280;5577;42.706;23.160;2022-07-15T14:36:43;94042.34;;;31.31;32.86
11049;BME280;5577;42.706;23.160;2022-07-15T14:39:27;94030.53;;;31.65;33.03
11049;BME280;5577;42.706;23.160;2022-07-15T14:42:11;94025.25;;;31.36;31.92
11049;BME280;5577;42.706;23.160;2022-07-15T14:44:55;94034.09;;;31.51;32.41
11049;BME280;5577;42.706;23.160;2022-07-15T14:47:39;94028.03;;;31.42;32.08
11049;BME280;5577;42.706;23.160;2022-07-15T14:50:23;94031.94;;;31.35;33.14
11049;BME280;5577;42.706;23.160;2022-07-15T14:53:07;94033.22;;;31.40;32.85
11049;BME280;5577;42.706;23.160;2022-07-15T14:55:51;94034.47;;;31.39;33.17
11049;BME280;5577;42.706;23.160;2022-07-15T14:58:35;94025.50;;;31.38;32.34
11049;BME280;5577;42.706;23.160;2022-07-15T15:01:19;94027.66;;;31.29;32.27
11049;BME280;5577;42.706;23.160;2022-07-15T15:04:03;94028.31;;;31.44;33.81
11049;BME280;5577;42.706;23.160;2022-07-15T15:06:47;94022.19;;;31.54;33.37
11049;BME280;5577;42.706;23.160;2022-07-15T15:09:32;94019.03;;;31.36;32.51
11049;BME280;5577;42.706;23.160;2022-07-15T15:12:16;94025.19;;;31.31;32.81
11049;BME280;5577;42.706;23.160;2022-07-15T15:15:00;94023.03;;;31.60;34.98
11049;BME280;5577;42.706;23.160;2022-07-15T15:17:43;94028.09;;;31.47;33.44
11049;BME280;5577;42.706;23.160;2022-07-15T15:20:28;94027.63;;;31.49;33.58